Thunder radar more information blitzortung!


Radar de pluja more information rain snow radar


Visita la nostra xarxa de llocs de meteo:

Template documentation
and downloads

And another site



No particular awareness of the weather is required.    There are no Weather-warnings

Pagina Historial Weather Underground text

Diari Resum Juny 24, 2017 Unitats:  Mètric    Imperial   Tant
« Previous Dia
SegĂźent Dia »
Diari Setmana Mensual Anual Personalitzada
  Maxima: Minima: Media:
Temperatura: 34.1 °C 19.9 °C 27.8 °C
Punt de rosada: 19.7 °C 14.4 °C 17.5 °C
Humitat: 75 % 39 % 55 %
Wind Speed: 20.4 km/h 0.0 km/h 8 km/h
RĂ fegues de vent: 20.4 km/h - -
Vent:- - SSW
Pression baro: 1018.8 hPa 1012.8 hPa -
Precipitacions: 0.0 mm    
Historical Graphs
 
 
Dades de taula per Juny 24, 2017
Temps Temperatura Punt de rosada Pression baro Vent Wind Speed RĂ fegues de vent Humitat Rainfall Rate (Hourly)
00:02 24.0 °C 14.4 °C 1017.8 hPa WSW 3.7 km/h 4.2 km/h 55 % 0.0 mm
00:05 21.1 °C 15.8 °C 1016.8 hPa Calm     72 % 0.0 mm
00:07 24.0 °C 14.4 °C 1017.8 hPa WSW 3.7 km/h 3.7 km/h 55 % 0.0 mm
00:12 23.9 °C 14.6 °C 1017.8 hPa SW 5.0 km/h 5.0 km/h 56 % 0.0 mm
00:15 20.8 °C 15.3 °C 1016.8 hPa Calm   1.6 km/h 71 % 0.0 mm
00:17 23.8 °C 14.8 °C 1017.8 hPa SW 5.6 km/h 5.6 km/h 57 % 0.0 mm
00:25 20.7 °C 15.3 °C 1015.8 hPa Calm   1.6 km/h 71 % 0.0 mm
00:35 20.5 °C 15.3 °C 1016.8 hPa Calm   1.6 km/h 72 % 0.0 mm
00:45 20.5 °C 15.3 °C 1016.8 hPa Calm   1.6 km/h 72 % 0.0 mm
00:55 20.5 °C 15.3 °C 1016.8 hPa NE 1.6 km/h 3.2 km/h 72 % 0.0 mm
01:05 20.4 °C 15.4 °C 1016.8 hPa Calm   1.6 km/h 73 % 0.0 mm
01:15 20.2 °C 15.2 °C 1016.8 hPa Calm     73 % 0.0 mm
01:25 20.1 °C 15.3 °C 1016.8 hPa Calm     74 % 0.0 mm
01:35 20.0 °C 15.2 °C 1016.8 hPa Calm     74 % 0.0 mm
01:45 19.9 °C 15.3 °C 1016.8 hPa Calm   1.6 km/h 75 % 0.0 mm
01:55 20.0 °C 15.4 °C 1016.8 hPa Calm     75 % 0.0 mm
02:05 20.4 °C 15.8 °C 1016.8 hPa SSW 4.8 km/h 4.8 km/h 75 % 0.0 mm
02:15 20.5 °C 15.7 °C 1016.8 hPa East 1.6 km/h 1.6 km/h 74 % 0.0 mm
02:25 20.8 °C 16.0 °C 1017.8 hPa East 3.2 km/h 3.2 km/h 74 % 0.0 mm
02:35 20.9 °C 15.9 °C 1017.8 hPa East 1.6 km/h 3.2 km/h 73 % 0.0 mm
02:45 21.3 °C 16.3 °C 1017.8 hPa Calm   3.2 km/h 73 % 0.0 mm
02:55 20.9 °C 15.7 °C 1018.8 hPa WSW 3.2 km/h 3.2 km/h 72 % 0.0 mm
03:05 21.6 °C 16.3 °C 1017.8 hPa SW 1.6 km/h 1.6 km/h 72 % 0.0 mm
03:15 22.4 °C 16.7 °C 1017.8 hPa Calm   1.6 km/h 70 % 0.0 mm
03:25 22.3 °C 16.3 °C 1017.8 hPa Calm   3.2 km/h 69 % 0.0 mm
03:35 23.2 °C 16.9 °C 1017.8 hPa WSW 1.6 km/h 1.6 km/h 68 % 0.0 mm
03:45 23.4 °C 16.7 °C 1017.8 hPa West 3.2 km/h 3.2 km/h 66 % 0.0 mm
03:55 23.6 °C 16.9 °C 1017.8 hPa West 1.6 km/h 1.6 km/h 66 % 0.0 mm
04:05 24.5 °C 17.0 °C 1018.8 hPa NW 3.2 km/h 4.8 km/h 63 % 0.0 mm
04:15 24.5 °C 17.0 °C 1018.8 hPa NE 3.2 km/h 3.2 km/h 63 % 0.0 mm
04:25 24.8 °C 16.8 °C 1017.8 hPa NE 1.6 km/h 6.4 km/h 61 % 0.0 mm
04:35 25.1 °C 16.3 °C 1017.8 hPa ENE 1.6 km/h 6.4 km/h 58 % 0.0 mm
04:45 25.7 °C 16.8 °C 1017.8 hPa ESE 1.6 km/h 4.8 km/h 58 % 0.0 mm
04:55 26.0 °C 16.3 °C 1017.8 hPa SE 1.6 km/h 6.4 km/h 55 % 0.0 mm
10:06 26.7 °C 16.6 °C 1017.8 hPa NNE 1.9 km/h 1.9 km/h 54 % 0.0 mm
10:11 27.2 °C 16.8 °C 1017.8 hPa NE 3.9 km/h 3.9 km/h 53 % 0.0 mm
10:16 26.9 °C 16.5 °C 1017.8 hPa ENE 5.6 km/h 5.6 km/h 53 % 0.0 mm
10:21 27.1 °C 16.1 °C 1017.8 hPa ENE 5.6 km/h 5.6 km/h 51 % 0.0 mm
10:26 27.5 °C 16.4 °C 1017.8 hPa WNW 3.7 km/h 3.7 km/h 51 % 0.0 mm
10:31 27.6 °C 16.6 °C 1017.8 hPa ESE 3.7 km/h 3.7 km/h 51 % 0.0 mm
10:36 27.4 °C 15.7 °C 1017.8 hPa East 3.7 km/h 3.7 km/h 49 % 0.0 mm
10:41 27.7 °C 16.3 °C 1017.8 hPa East 5.6 km/h 5.6 km/h 50 % 0.0 mm
10:46 27.6 °C 15.9 °C 1016.8 hPa NE 5.6 km/h 5.6 km/h 49 % 0.0 mm
10:51 27.9 °C 16.5 °C 1016.8 hPa WSW 3.7 km/h 3.7 km/h 50 % 0.0 mm
10:56 28.2 °C 16.4 °C 1016.8 hPa ESE 11.1 km/h 11.1 km/h 49 % 0.0 mm
11:01 27.9 °C 16.2 °C 1016.8 hPa ENE 8.7 km/h 8.7 km/h 49 % 0.0 mm
11:06 27.8 °C 15.8 °C 1016.8 hPa ESE 4.2 km/h 4.2 km/h 48 % 0.0 mm
11:11 28.5 °C 16.4 °C 1016.8 hPa SSE 5.6 km/h 5.6 km/h 48 % 0.0 mm
11:16 28.9 °C 16.4 °C 1016.8 hPa ENE 7.4 km/h 7.4 km/h 47 % 0.0 mm
11:21 28.5 °C 16.1 °C 1016.8 hPa SSE 11.1 km/h 11.1 km/h 47 % 0.0 mm
11:26 28.5 °C 16.1 °C 1016.8 hPa WSW 9.3 km/h 9.3 km/h 47 % 0.0 mm
11:31 28.6 °C 16.2 °C 1016.8 hPa NNE 7.4 km/h 7.4 km/h 47 % 0.0 mm
11:36 28.9 °C 16.4 °C 1016.8 hPa SSE 9.3 km/h 9.3 km/h 47 % 0.0 mm
11:41 28.9 °C 16.4 °C 1016.8 hPa East 5.6 km/h 5.6 km/h 47 % 0.0 mm
11:46 29.0 °C 16.6 °C 1016.8 hPa NNW 7.4 km/h 7.4 km/h 47 % 0.0 mm
11:51 29.0 °C 16.9 °C 1016.8 hPa NNE 9.5 km/h 9.5 km/h 48 % 0.0 mm
11:56 29.1 °C 17.3 °C 1016.8 hPa SSW 6.4 km/h 6.4 km/h 49 % 0.0 mm
12:01 29.4 °C 17.6 °C 1016.8 hPa East 13.0 km/h 13.0 km/h 49 % 0.0 mm
12:06 29.3 °C 17.8 °C 1016.8 hPa SE 4.2 km/h 4.2 km/h 50 % 0.0 mm
12:11 28.8 °C 17.9 °C 1016.8 hPa ESE 14.8 km/h 14.8 km/h 52 % 0.0 mm
12:16 28.9 °C 18.3 °C 1016.8 hPa South 16.7 km/h 16.7 km/h 53 % 0.0 mm
12:21 28.9 °C 18.7 °C 1016.8 hPa ESE 15.8 km/h 15.8 km/h 54 % 0.0 mm
12:26 29.0 °C 18.4 °C 1016.8 hPa ESE 7.4 km/h 7.4 km/h 53 % 0.0 mm
12:31 29.1 °C 18.6 °C 1015.8 hPa ESE 13.0 km/h 13.0 km/h 53 % 0.0 mm
12:36 29.0 °C 18.8 °C 1015.8 hPa East 9.3 km/h 9.3 km/h 54 % 0.0 mm
12:41 28.8 °C 19.2 °C 1015.8 hPa ENE 6.4 km/h 6.4 km/h 56 % 0.0 mm
12:46 28.6 °C 18.9 °C 1016.8 hPa ENE 13.0 km/h 13.0 km/h 56 % 0.0 mm
12:51 28.6 °C 18.9 °C 1016.8 hPa ESE 11.1 km/h 11.1 km/h 56 % 0.0 mm
12:56 28.8 °C 19.2 °C 1016.8 hPa ESE 11.1 km/h 11.1 km/h 56 % 0.0 mm
13:01 28.8 °C 19.2 °C 1015.8 hPa North 5.6 km/h 5.6 km/h 56 % 0.0 mm
13:06 29.1 °C 19.1 °C 1015.8 hPa East 13.0 km/h 13.0 km/h 55 % 0.0 mm
13:11 29.4 °C 19.1 °C 1015.8 hPa ENE 9.3 km/h 9.3 km/h 54 % 0.0 mm
13:16 29.7 °C 19.4 °C 1015.8 hPa ESE 11.1 km/h 11.1 km/h 54 % 0.0 mm
13:21 30.7 °C 19.7 °C 1015.8 hPa ESE 11.1 km/h 11.1 km/h 52 % 0.0 mm
13:26 31.4 °C 19.4 °C 1015.8 hPa SW 9.3 km/h 9.3 km/h 49 % 0.0 mm
13:31 31.5 °C 19.5 °C 1015.8 hPa SW 11.1 km/h 11.1 km/h 49 % 0.0 mm
13:36 31.4 °C 19.1 °C 1015.8 hPa SW 11.9 km/h 11.9 km/h 48 % 0.0 mm
13:41 31.8 °C 19.1 °C 1015.8 hPa SW 10.8 km/h 10.8 km/h 47 % 0.0 mm
13:46 32.0 °C 18.9 °C 1015.8 hPa SW 11.1 km/h 11.1 km/h 46 % 0.0 mm
13:51 31.1 °C 17.8 °C 1015.8 hPa SW 14.8 km/h 14.8 km/h 45 % 0.0 mm
13:56 31.6 °C 18.2 °C 1015.8 hPa SW 9.3 km/h 9.3 km/h 45 % 0.0 mm
14:01 31.4 °C 18.1 °C 1015.8 hPa WSW 9.3 km/h 9.3 km/h 45 % 0.0 mm
14:06 31.9 °C 18.5 °C 1015.8 hPa SSW 9.3 km/h 9.3 km/h 45 % 0.0 mm
14:11 32.2 °C 18.4 °C 1015.8 hPa South 7.4 km/h 7.4 km/h 44 % 0.0 mm
14:16 32.2 °C 18.4 °C 1015.8 hPa SSW 11.1 km/h 11.1 km/h 44 % 0.0 mm
14:21 32.4 °C 18.6 °C 1015.8 hPa West 9.3 km/h 9.3 km/h 44 % 0.0 mm
14:26 32.0 °C 17.8 °C 1015.8 hPa West 14.8 km/h 14.8 km/h 43 % 0.0 mm
14:31 32.3 °C 18.1 °C 1015.8 hPa SW 12.2 km/h 12.2 km/h 43 % 0.0 mm
14:36 32.0 °C 17.8 °C 1015.8 hPa South 11.1 km/h 11.1 km/h 43 % 0.0 mm
14:41 32.3 °C 18.1 °C 1015.8 hPa SW 9.3 km/h 9.3 km/h 43 % 0.0 mm
14:46 32.9 °C 18.7 °C 1014.8 hPa SW 12.6 km/h 12.6 km/h 43 % 0.0 mm
14:51 32.3 °C 18.1 °C 1014.8 hPa SW 12.6 km/h 12.6 km/h 43 % 0.0 mm
14:56 32.6 °C 18.4 °C 1014.8 hPa West 7.4 km/h 7.4 km/h 43 % 0.0 mm
15:01 32.8 °C 18.6 °C 1014.8 hPa SSW 11.1 km/h 11.1 km/h 43 % 0.0 mm
15:06 32.2 °C 18.1 °C 1014.8 hPa West 13.0 km/h 13.0 km/h 43 % 0.0 mm
15:11 32.3 °C 17.8 °C 1014.8 hPa SSE 5.6 km/h 5.6 km/h 42 % 0.0 mm
15:16 33.1 °C 18.4 °C 1014.8 hPa South 7.4 km/h 7.4 km/h 42 % 0.0 mm
15:21 33.5 °C 18.4 °C 1014.8 hPa SE 3.7 km/h 3.7 km/h 41 % 0.0 mm
15:26 33.7 °C 18.6 °C 1014.8 hPa SW 9.7 km/h 9.7 km/h 41 % 0.0 mm
15:31 33.4 °C 17.9 °C 1013.8 hPa West 13.0 km/h 13.0 km/h 40 % 0.0 mm
15:36 33.8 °C 18.3 °C 1013.8 hPa South 9.3 km/h 9.3 km/h 40 % 0.0 mm
15:41 34.1 °C 18.6 °C 1013.8 hPa SSW 7.4 km/h 7.4 km/h 40 % 0.0 mm
15:46 33.7 °C 18.2 °C 1013.8 hPa South 9.3 km/h 9.3 km/h 40 % 0.0 mm
15:51 33.4 °C 17.6 °C 1013.8 hPa South 7.4 km/h 7.4 km/h 39 % 0.0 mm
15:56 33.8 °C 18.3 °C 1013.8 hPa WSW 7.4 km/h 7.4 km/h 40 % 0.0 mm
16:01 34.1 °C 18.6 °C 1013.8 hPa WSW 9.5 km/h 9.5 km/h 40 % 0.0 mm
16:06 33.2 °C 17.8 °C 1013.8 hPa West 15.6 km/h 15.6 km/h 40 % 0.0 mm
16:11 32.9 °C 17.9 °C 1013.8 hPa SW 9.3 km/h 9.3 km/h 41 % 0.0 mm
16:16 33.3 °C 17.9 °C 1013.8 hPa South 10.0 km/h 10.0 km/h 40 % 0.0 mm
16:17 33.5 °C 18.1 °C 1013.8 hPa South 10.0 km/h 10.0 km/h 40 % 0.0 mm
16:22 33.3 °C 18.3 °C 1013.8 hPa SW 18.5 km/h 18.5 km/h 41 % 0.0 mm
16:27 33.1 °C 18.4 °C 1013.8 hPa SSW 13.0 km/h 13.0 km/h 42 % 0.0 mm
16:32 32.7 °C 18.5 °C 1013.8 hPa SW 11.1 km/h 11.1 km/h 43 % 0.0 mm
16:37 32.0 °C 17.8 °C 1013.8 hPa WSW 13.0 km/h 13.0 km/h 43 % 0.0 mm
16:40 26.4 °C 17.4 °C 1013.8 hPa SW 3.2 km/h 8.0 km/h 58 % 0.0 mm
16:42 32.2 °C 18.4 °C 1013.8 hPa WSW 13.0 km/h 13.0 km/h 44 % 0.0 mm
16:47 31.9 °C 18.1 °C 1012.8 hPa West 9.3 km/h 9.3 km/h 44 % 0.0 mm
16:50 26.0 °C 17.4 °C 1013.8 hPa SW 4.8 km/h 6.4 km/h 59 % 0.0 mm
16:52 32.0 °C 18.6 °C 1012.8 hPa SW 14.8 km/h 14.8 km/h 45 % 0.0 mm
16:57 31.6 °C 18.2 °C 1012.8 hPa South 16.9 km/h 16.9 km/h 45 % 0.0 mm
17:02 31.7 °C 18.7 °C 1012.8 hPa West 18.5 km/h 18.5 km/h 46 % 0.0 mm
17:07 31.3 °C 18.3 °C 1012.8 hPa West 14.8 km/h 14.8 km/h 46 % 0.0 mm
17:12 30.7 °C 18.1 °C 1012.8 hPa SW 16.7 km/h 16.7 km/h 47 % 0.0 mm
17:17 30.9 °C 18.6 °C 1013.8 hPa SW 10.0 km/h 10.0 km/h 48 % 0.0 mm
17:22 30.7 °C 18.4 °C 1013.8 hPa SW 13.0 km/h 13.0 km/h 48 % 0.0 mm
17:27 30.2 °C 18.0 °C 1013.8 hPa SSW 20.4 km/h 20.4 km/h 48 % 0.0 mm
17:32 30.2 °C 18.0 °C 1013.8 hPa South 18.5 km/h 18.5 km/h 48 % 0.0 mm
17:37 30.0 °C 18.1 °C 1013.8 hPa West 13.0 km/h 13.0 km/h 49 % 0.0 mm
17:42 30.0 °C 17.8 °C 1013.8 hPa SW 16.7 km/h 16.7 km/h 48 % 0.0 mm
17:47 30.1 °C 17.9 °C 1013.8 hPa SW 13.0 km/h 13.0 km/h 48 % 0.0 mm
17:52 29.9 °C 17.7 °C 1013.8 hPa SSW 14.8 km/h 14.8 km/h 48 % 0.0 mm
17:57 29.6 °C 17.8 °C 1013.8 hPa SW 10.0 km/h 10.0 km/h 49 % 0.0 mm
18:02 29.6 °C 17.8 °C 1013.8 hPa WSW 9.3 km/h 9.3 km/h 49 % 0.0 mm
18:07 29.4 °C 17.6 °C 1013.8 hPa SW 18.5 km/h 18.5 km/h 49 % 0.0 mm
18:12 29.2 °C 17.7 °C 1013.8 hPa South 16.7 km/h 16.7 km/h 50 % 0.0 mm
18:17 29.2 °C 17.7 °C 1013.8 hPa SSW 13.0 km/h 13.0 km/h 50 % 0.0 mm
18:22 29.3 °C 18.1 °C 1013.8 hPa SW 7.4 km/h 7.4 km/h 51 % 0.0 mm
18:27 29.3 °C 18.1 °C 1013.8 hPa SW 9.3 km/h 9.3 km/h 51 % 0.0 mm
18:32 29.3 °C 18.1 °C 1013.8 hPa SSE 9.3 km/h 9.3 km/h 51 % 0.0 mm
18:37 29.1 °C 18.2 °C 1013.8 hPa WSW 11.1 km/h 11.1 km/h 52 % 0.0 mm
18:42 28.8 °C 18.3 °C 1013.8 hPa South 14.8 km/h 14.8 km/h 53 % 0.0 mm
18:47 28.6 °C 18.1 °C 1013.8 hPa SW 11.1 km/h 11.1 km/h 53 % 0.0 mm
18:52 28.5 °C 18.0 °C 1013.8 hPa SW 20.4 km/h 20.4 km/h 53 % 0.0 mm
18:57 28.4 °C 18.2 °C 1013.8 hPa South 7.4 km/h 7.4 km/h 54 % 0.0 mm
19:02 28.8 °C 18.6 °C 1013.8 hPa SW 7.4 km/h 7.4 km/h 54 % 0.0 mm
19:07 29.1 °C 18.6 °C 1013.8 hPa SW 7.4 km/h 7.4 km/h 53 % 0.0 mm
19:12 28.9 °C 18.7 °C 1013.8 hPa West 11.1 km/h 11.1 km/h 54 % 0.0 mm
19:17 28.9 °C 18.7 °C 1013.8 hPa SSW 16.7 km/h 16.7 km/h 54 % 0.0 mm
19:22 28.9 °C 18.7 °C 1013.8 hPa SSW 11.1 km/h 11.1 km/h 54 % 0.0 mm
19:27 29.0 °C 18.4 °C 1013.8 hPa SSW 13.0 km/h 13.0 km/h 53 % 0.0 mm
19:32 29.0 °C 18.8 °C 1013.8 hPa SW 10.0 km/h 10.0 km/h 54 % 0.0 mm
19:37 28.6 °C 18.7 °C 1013.8 hPa SSW 11.1 km/h 11.1 km/h 55 % 0.0 mm
19:42 28.7 °C 18.8 °C 1013.8 hPa SW 8.7 km/h 8.7 km/h 55 % 0.0 mm
19:48 28.6 °C 18.4 °C 1013.8 hPa SW 10.0 km/h 10.0 km/h 54 % 0.0 mm
19:53 28.5 °C 18.3 °C 1013.8 hPa SW 8.7 km/h 8.7 km/h 54 % 0.0 mm
19:58 28.4 °C 18.5 °C 1012.8 hPa WSW 11.1 km/h 11.1 km/h 55 % 0.0 mm
20:03 28.1 °C 18.2 °C 1012.8 hPa SW 9.3 km/h 9.3 km/h 55 % 0.0 mm
20:08 28.1 °C 18.5 °C 1012.8 hPa SW 7.4 km/h 7.4 km/h 56 % 0.0 mm
20:13 28.1 °C 18.2 °C 1012.8 hPa SSW 9.3 km/h 9.3 km/h 55 % 0.0 mm
20:18 28.0 °C 18.1 °C 1013.8 hPa WSW 9.3 km/h 9.3 km/h 55 % 0.0 mm
20:23 27.8 °C 18.2 °C 1013.8 hPa WNW 9.3 km/h 9.3 km/h 56 % 0.0 mm
20:28 27.7 °C 18.1 °C 1012.8 hPa West 9.0 km/h 9.0 km/h 56 % 0.0 mm
20:33 27.6 °C 18.1 °C 1012.8 hPa WSW 9.3 km/h 9.3 km/h 56 % 0.0 mm
20:38 27.5 °C 17.9 °C 1012.8 hPa SW 7.4 km/h 7.4 km/h 56 % 0.0 mm
20:43 27.5 °C 17.7 °C 1012.8 hPa SW 7.4 km/h 7.4 km/h 55 % 0.0 mm
20:48 27.5 °C 17.7 °C 1012.8 hPa SW 5.6 km/h 5.6 km/h 55 % 0.0 mm
20:53 27.4 °C 17.6 °C 1012.8 hPa SSW 4.2 km/h 4.2 km/h 55 % 0.0 mm
20:58 27.3 °C 17.4 °C 1012.8 hPa SSW 3.7 km/h 3.7 km/h 55 % 0.0 mm
21:03 27.2 °C 17.4 °C 1012.8 hPa SW 5.6 km/h 5.6 km/h 55 % 0.0 mm
21:08 27.1 °C 17.3 °C 1012.8 hPa SW 5.8 km/h 5.8 km/h 55 % 0.0 mm
21:13 27.0 °C 17.2 °C 1012.8 hPa SW 7.4 km/h 7.4 km/h 55 % 0.0 mm
21:18 26.9 °C 17.4 °C 1012.8 hPa SW 9.3 km/h 9.3 km/h 56 % 0.0 mm
22:00 25.6 °C 17.5 °C 1013.8 hPa SW 5.6 km/h 5.6 km/h 61 % 0.0 mm
22:05 25.3 °C 17.2 °C 1013.8 hPa SW 5.6 km/h 5.6 km/h 61 % 0.0 mm
22:10 25.1 °C 17.3 °C 1013.8 hPa WSW 7.4 km/h 7.4 km/h 62 % 0.0 mm
22:15 25.0 °C 17.2 °C 1012.8 hPa WSW 7.4 km/h 7.4 km/h 62 % 0.0 mm
22:20 24.8 °C 17.3 °C 1012.8 hPa WSW 7.4 km/h 7.4 km/h 63 % 0.0 mm
22:25 24.7 °C 17.4 °C 1012.8 hPa WSW 10.3 km/h 10.3 km/h 64 % 0.0 mm
22:30 24.6 °C 17.3 °C 1013.8 hPa SW 9.3 km/h 9.3 km/h 64 % 0.0 mm
22:35 24.4 °C 17.4 °C 1013.8 hPa SW 4.8 km/h 11.3 km/h 65 % 0.0 mm
22:40 24.3 °C 17.3 °C 1013.8 hPa SW 4.8 km/h 11.3 km/h 65 % 0.0 mm
22:45 24.2 °C 17.4 °C 1013.8 hPa SW 4.8 km/h 9.7 km/h 66 % 0.0 mm
22:50 24.1 °C 17.3 °C 1013.8 hPa SW 3.2 km/h 9.7 km/h 66 % 0.0 mm
22:55 24.0 °C 17.5 °C 1013.8 hPa SW 3.2 km/h 9.7 km/h 67 % 0.0 mm
23:00 24.0 °C 17.5 °C 1014.8 hPa SW 3.2 km/h 8.0 km/h 67 % 0.0 mm
23:05 23.9 °C 17.6 °C 1014.8 hPa SW 3.2 km/h 8.0 km/h 68 % 0.0 mm
23:10 23.8 °C 17.6 °C 1014.8 hPa SW 3.2 km/h 4.8 km/h 68 % 0.0 mm
23:15 23.7 °C 17.7 °C 1014.8 hPa SW 9.3 km/h 9.3 km/h 69 % 0.0 mm
23:20 23.7 °C 17.7 °C 1014.8 hPa SW 3.7 km/h 3.7 km/h 69 % 0.0 mm
23:22 23.6 °C 17.6 °C 1014.8 hPa SW 3.7 km/h 3.7 km/h 69 % 0.0 mm
23:27 23.6 °C 17.6 °C 1014.8 hPa WSW 5.6 km/h 5.6 km/h 69 % 0.0 mm
23:32 23.5 °C 17.5 °C 1014.8 hPa SW 5.6 km/h 5.6 km/h 69 % 0.0 mm
23:37 23.5 °C 17.7 °C 1014.8 hPa SW 3.7 km/h 3.7 km/h 70 % 0.0 mm
23:42 23.4 °C 17.6 °C 1014.8 hPa WSW 3.7 km/h 3.7 km/h 70 % 0.0 mm
23:47 23.4 °C 17.6 °C 1014.8 hPa SW 1.9 km/h   70 % 0.0 mm
23:52 23.4 °C 17.6 °C 1014.8 hPa SW 3.7 km/h 3.7 km/h 70 % 0.0 mm
23:57 23.3 °C 17.7 °C 1014.8 hPa WSW 2.6 km/h   71 % 0.0 mm
Meteo Sesrovires
Elogis d' Weather Underground - 3.5 mb

Guio original per  Jim McMurry - jmcmurry@mwt.net Adaptat per a la plantilla per  Wim van der Kuil - Leuven-Template.eu

Trobareu la nostra informacio del temps tambe a:

Weather Underground

AWEKAS